Darstellungsparameter: Aktuell verwendete Einstellungen:
Skalierung der Graphiken ... ?
xyx+y,   Skalierungsfaktor:      Skalierung: Modus: x, Faktor: 1
Darstellungszeitraum ... ?
Vom - - bis: - -   Zeitraum: 25.06.2014 - 25.06.2014
Min/Max/Avg-Anzeige ... ?
Zeige MMA aktuell
Zeige MMA Monat
Zeige MMA alles
Zeige --A aktuell
Zeige --A Monat
Zeige --A alles
Keine MMA-Anzeige
MMA:
Keine MMA-Graphiken
MMA-Basis: 25.06.2014 - 25.06.2014
Quicknavigation für Darstellung... ?
Tage:      1T, 2T, 3T, 5T -1T -2T -3T -5T +1T +2T +3T +5T
Wochen: 1W, 2W, 3W -1W -2W -3W +1W +2W +3W
Monate: 1M, 3M, 6M -1M -3M -6M +1M +3M +6M
Jahre:    1J, 3J, 5J, 10J -1J -3J -5J -10J +1J +3J +5J +10J
Nutze für die Darstellung ... ?
Originaldaten oder Mittelwerte auf ...
Stundenbasis Tagesbasis Wochenbasis
Monatsbasis Jahresbasis      Datenbasis: Original-Daten
Darstellen als:
Statistik (Auto) Statistik J:M      Darstellung:
Zur Graphik,    zurück zur Übersicht aller Sensoren.
 
Tabellarische Datenbersicht: ?
 
Sensor: Nr:Datum:Temp:Abs-Feuchte:Windchill:Wind:
Aussen-T/F 1 25-06-2014 08:20:00 14.1 C 12.14 g/m*3 14.1 C 9.7 km/h
2 25-06-2014 08:25:00 14.2 C 12.21 g/m*3 14.2 C 9.7 km/h
3 25-06-2014 08:30:00 14.3 C 12.29 g/m*3 14.3 C 11.3 km/h
4 25-06-2014 08:35:00 14.3 C 12.29 g/m*3 14.3 C 14.5 km/h
5 25-06-2014 08:40:00 14.2 C 9.65 g/m*3 14.2 C 12.9 km/h
6 25-06-2014 08:45:00 14.2 C 9.52 g/m*3 14.2 C 17.7 km/h
7 25-06-2014 08:50:00 14.2 C 9.52 g/m*3 14.2 C 11.3 km/h
8 25-06-2014 08:55:00 14.1 C 9.59 g/m*3 14.1 C 8.1 km/h
9 25-06-2014 09:00:00 13.9 C 9.35 g/m*3 13.9 C 12.9 km/h
10 25-06-2014 09:05:00 13.8 C 9.65 g/m*3 13.8 C 4.8 km/h
11 25-06-2014 09:10:00 14.1 C 9.71 g/m*3 14.1 C 6.4 km/h
12 25-06-2014 09:15:00 14.5 C 9.58 g/m*3 14.5 C 16.1 km/h
13 25-06-2014 09:20:00 14.7 C 9.32 g/m*3 14.7 C 17.7 km/h
14 25-06-2014 09:25:00 14.8 C 9.37 g/m*3 14.8 C 14.5 km/h
15 25-06-2014 09:30:00 14.9 C 9.3 g/m*3 14.9 C 17.7 km/h
16 25-06-2014 09:35:00 15 C 9.1 g/m*3 15 C 12.9 km/h
17 25-06-2014 09:40:00 15.1 C 9.16 g/m*3 15.1 C 9.7 km/h
18 25-06-2014 09:45:00 15.2 C 9.35 g/m*3 15.2 C 9.7 km/h
19 25-06-2014 09:50:00 15.4 C 9.07 g/m*3 15.4 C 16.1 km/h
20 25-06-2014 09:55:00 15.6 C 8.91 g/m*3 15.6 C 11.3 km/h
21 25-06-2014 10:00:00 15.6 C 8.91 g/m*3 15.6 C 14.5 km/h
22 25-06-2014 10:05:00 15.3 C 8.75 g/m*3 15.3 C 14.5 km/h
23 25-06-2014 10:10:00 15.2 C 8.7 g/m*3 15.2 C 12.9 km/h
24 25-06-2014 10:15:00 15.2 C 8.7 g/m*3 15.2 C 19.3 km/h
25 25-06-2014 10:20:00 15.2 C 8.44 g/m*3 15.2 C 17.7 km/h
Sensor: Nr:Datum:Temp:Abs-Feuchte:Windchill:Wind:
Aussen-T/F 26 25-06-2014 10:25:00 15.3 C 8.62 g/m*3 15.3 C 9.7 km/h
27 25-06-2014 10:30:00 15.7 C 8.7 g/m*3 15.7 C 14.5 km/h
28 25-06-2014 10:35:00 15.8 C 8.48 g/m*3 15.8 C 16.1 km/h
29 25-06-2014 10:40:00 15.7 C 8.56 g/m*3 15.7 C 9.7 km/h
30 25-06-2014 10:45:00 16 C 8.45 g/m*3 16 C 16.1 km/h
31 25-06-2014 10:50:00 16.1 C 8.09 g/m*3 16.1 C 19.3 km/h
32 25-06-2014 10:55:00 16.3 C 7.63 g/m*3 16.3 C 11.3 km/h
33 25-06-2014 11:00:00 16.8 C 8.01 g/m*3 16.8 C 12.9 km/h
34 25-06-2014 11:05:00 17.3 C 8.84 g/m*3 17.3 C 16.1 km/h
35 25-06-2014 11:10:00 17.3 C 8.1 g/m*3 17.3 C 14.5 km/h
36 25-06-2014 11:15:00 16.8 C 8.01 g/m*3 16.8 C 12.9 km/h
37 25-06-2014 11:20:00 16.4 C 7.82 g/m*3 16.4 C 20.9 km/h
38 25-06-2014 11:25:00 16.1 C 8.22 g/m*3 16.1 C 12.9 km/h
39 25-06-2014 11:30:00 16.3 C 7.91 g/m*3 16.3 C 12.9 km/h
40 25-06-2014 11:35:00 16.9 C 8.49 g/m*3 16.9 C 11.3 km/h
41 25-06-2014 11:40:00 17.4 C 8.45 g/m*3 17.4 C 16.1 km/h
42 25-06-2014 11:45:00 17.7 C 8.15 g/m*3 17.7 C 11.3 km/h
43 25-06-2014 11:50:00 17.7 C 8.15 g/m*3 17.7 C 12.9 km/h
44 25-06-2014 11:55:00 17.9 C 8.24 g/m*3 17.9 C 12.9 km/h
45 25-06-2014 12:00:00 18.1 C 8.19 g/m*3 18.1 C 11.3 km/h
46 25-06-2014 12:05:00 17.9 C 7.63 g/m*3 17.9 C 17.7 km/h
47 25-06-2014 12:10:00 17.6 C 7.65 g/m*3 17.6 C 16.1 km/h
48 25-06-2014 12:15:00 17.8 C 7.59 g/m*3 17.8 C 12.9 km/h
49 25-06-2014 12:20:00 18.2 C 7.77 g/m*3 18.2 C 16.1 km/h
50 25-06-2014 12:25:00 18.4 C 7.71 g/m*3 18.4 C 16.1 km/h
Sensor: Nr:Datum:Temp:Abs-Feuchte:Windchill:Wind:
Aussen-T/F 51 25-06-2014 12:30:00 18.3 C 7.97 g/m*3 18.3 C 17.7 km/h
52 25-06-2014 12:35:00 17.7 C 7.69 g/m*3 17.7 C 16.1 km/h
53 25-06-2014 12:40:00 17.4 C 7.71 g/m*3 17.4 C 14.5 km/h
54 25-06-2014 12:45:00 17.3 C 7.81 g/m*3 17.3 C 14.5 km/h
55 25-06-2014 12:50:00 17.3 C 7.96 g/m*3 17.3 C 12.9 km/h
56 25-06-2014 12:55:00 17.4 C 7.56 g/m*3 17.4 C 12.9 km/h
57 25-06-2014 13:00:00 17.4 C 7.85 g/m*3 17.4 C 9.7 km/h
58 25-06-2014 13:05:00 17.7 C 8 g/m*3 17.7 C 8.1 km/h
59 25-06-2014 13:10:00 18.1 C 8.03 g/m*3 18.1 C 14.5 km/h
60 25-06-2014 13:15:00 18.1 C 7.88 g/m*3 18.1 C 11.3 km/h
61 25-06-2014 13:20:00 18 C 7.83 g/m*3 18 C 12.9 km/h
62 25-06-2014 13:25:00 17.9 C 7.79 g/m*3 17.9 C 11.3 km/h
63 25-06-2014 13:30:00 17.8 C 7.89 g/m*3 17.8 C 9.7 km/h
64 25-06-2014 13:35:00 17.9 C 7.63 g/m*3 17.9 C 12.9 km/h
65 25-06-2014 13:40:00 17.8 C 7.74 g/m*3 17.8 C 11.3 km/h
66 25-06-2014 13:45:00 17.6 C 7.5 g/m*3 17.6 C 6.4 km/h
67 25-06-2014 13:50:00 17.9 C 8.24 g/m*3 17.9 C 11.3 km/h
68 25-06-2014 13:55:00 18.2 C 7.93 g/m*3 18.2 C 6.4 km/h
69 25-06-2014 14:00:00 18.3 C 7.51 g/m*3 18.3 C 12.9 km/h
70 25-06-2014 14:05:00 18.3 C 7.82 g/m*3 18.3 C 9.7 km/h
71 25-06-2014 14:10:00 18.2 C 7.77 g/m*3 18.2 C 17.7 km/h
72 25-06-2014 14:15:00 17.8 C 7.89 g/m*3 17.8 C 11.3 km/h
73 25-06-2014 14:20:00 17.9 C 8.24 g/m*3 17.9 C 12.9 km/h
74 25-06-2014 14:25:00 18.7 C 7.68 g/m*3 18.7 C 16.1 km/h
75 25-06-2014 14:30:00 18.8 C 7.89 g/m*3 18.8 C 17.7 km/h
Sensor: Nr:Datum:Temp:Abs-Feuchte:Windchill:Wind:
Aussen-T/F 76 25-06-2014 14:35:00 18.9 C 8.1 g/m*3 18.9 C 14.5 km/h
77 25-06-2014 14:40:00 18.9 C 7.78 g/m*3 18.9 C 12.9 km/h
78 25-06-2014 14:45:00 18.9 C 7.78 g/m*3 18.9 C 9.7 km/h
79 25-06-2014 14:50:00 18.7 C 7.68 g/m*3 18.7 C 9.7 km/h
80 25-06-2014 14:55:00 18.4 C 7.86 g/m*3 18.4 C 11.3 km/h
81 25-06-2014 15:00:00 18.2 C 7.62 g/m*3 18.2 C 9.7 km/h
82 25-06-2014 15:05:00 17.9 C 7.63 g/m*3 17.9 C 9.7 km/h
83 25-06-2014 15:10:00 17.8 C 7.74 g/m*3 17.8 C 9.7 km/h
84 25-06-2014 15:15:00 17.8 C 7.74 g/m*3 17.8 C 9.7 km/h
85 25-06-2014 15:20:00 17.9 C 7.94 g/m*3 17.9 C 9.7 km/h
86 25-06-2014 15:25:00 18.2 C 7.93 g/m*3 18.2 C 11.3 km/h
87 25-06-2014 15:30:00 18.6 C 7.96 g/m*3 18.6 C 8.1 km/h
88 25-06-2014 15:35:00 18.8 C 8.05 g/m*3 18.8 C 14.5 km/h
89 25-06-2014 15:40:00 19.3 C 7.96 g/m*3 19.3 C 19.3 km/h
90 25-06-2014 15:45:00 19.1 C 7.7 g/m*3 19.1 C 16.1 km/h
91 25-06-2014 15:50:00 18.8 C 7.57 g/m*3 18.8 C 9.7 km/h
92 25-06-2014 15:55:00 18.6 C 7.48 g/m*3 18.6 C 9.7 km/h
93 25-06-2014 16:00:00 18.7 C 7.84 g/m*3 18.7 C 11.3 km/h
94 25-06-2014 16:05:00 19.3 C 7.46 g/m*3 19.3 C 8.1 km/h
95 25-06-2014 16:10:00 20.1 C 7.82 g/m*3 20.1 C 12.9 km/h
96 25-06-2014 16:15:00 20.5 C 7.47 g/m*3 20.5 C 6.4 km/h
97 25-06-2014 16:20:00 20.1 C 7.13 g/m*3 20.1 C 11.3 km/h
98 25-06-2014 16:25:00 19.8 C 7.34 g/m*3 19.8 C 6.4 km/h
99 25-06-2014 16:30:00 19.5 C 7.38 g/m*3 19.5 C 9.7 km/h
100 25-06-2014 16:35:00 19.3 C 7.46 g/m*3 19.3 C 11.3 km/h
Sensor: Nr:Datum:Temp:Abs-Feuchte:Windchill:Wind:
Aussen-T/F 101 25-06-2014 16:40:00 19.8 C 7.52 g/m*3 19.8 C 8.1 km/h
102 25-06-2014 16:45:00 20.2 C 7.34 g/m*3 20.2 C 11.3 km/h
103 25-06-2014 16:50:00 20 C 7.09 g/m*3 20 C 8.1 km/h
104 25-06-2014 16:55:00 19.6 C 7.26 g/m*3 19.6 C 9.7 km/h
105 25-06-2014 17:00:00 19.2 C 7.42 g/m*3 19.2 C 11.3 km/h
106 25-06-2014 17:05:00 18.9 C 7.13 g/m*3 18.9 C 12.9 km/h
107 25-06-2014 17:10:00 19.1 C 7.54 g/m*3 19.1 C 9.7 km/h
108 25-06-2014 17:15:00 19.7 C 7.3 g/m*3 19.7 C 11.3 km/h
109 25-06-2014 17:20:00 20.1 C 7.3 g/m*3 20.1 C 12.9 km/h
110 25-06-2014 17:25:00 19.8 C 7.34 g/m*3 19.8 C 11.3 km/h
111 25-06-2014 17:30:00 19.7 C 7.81 g/m*3 19.7 C 9.7 km/h
112 25-06-2014 17:35:00 20.3 C 7.56 g/m*3 20.3 C 14.5 km/h
113 25-06-2014 17:40:00 20.2 C 7.34 g/m*3 20.2 C 8.1 km/h
114 25-06-2014 17:45:00 19.7 C 7.47 g/m*3 19.7 C 11.3 km/h
115 25-06-2014 17:50:00 19.5 C 7.89 g/m*3 19.5 C 6.4 km/h
116 25-06-2014 17:55:00 19.8 C 7.34 g/m*3 19.8 C 4.8 km/h
117 25-06-2014 18:00:00 20.1 C 7.3 g/m*3 20.1 C 4.8 km/h
118 25-06-2014 18:05:00 20.2 C 7.69 g/m*3 20.2 C 6.4 km/h
119 25-06-2014 18:10:00 20.6 C 7.52 g/m*3 20.6 C 9.7 km/h
120 25-06-2014 18:15:00 20.7 C 7.92 g/m*3 20.7 C 12.9 km/h
121 25-06-2014 18:20:00 20.9 C 7.65 g/m*3 20.9 C 8.1 km/h
122 25-06-2014 18:25:00 20.8 C 7.79 g/m*3 20.8 C 8.1 km/h
123 25-06-2014 18:30:00 21.1 C 7.19 g/m*3 21.1 C 11.3 km/h
124 25-06-2014 18:35:00 20.9 C 7.47 g/m*3 20.9 C 9.7 km/h
125 25-06-2014 18:40:00 20.7 C 7.56 g/m*3 20.7 C 11.3 km/h
Sensor: Nr:Datum:Temp:Abs-Feuchte:Windchill:Wind:
Aussen-T/F 126 25-06-2014 18:45:00 20.8 C 7.6 g/m*3 20.8 C 9.7 km/h
127 25-06-2014 18:50:00 21.1 C 7.37 g/m*3 21.1 C 11.3 km/h
128 25-06-2014 18:55:00 21.1 C 7.92 g/m*3 21.1 C 12.9 km/h
129 25-06-2014 19:00:00 21 C 7.69 g/m*3 21 C 11.3 km/h
130 25-06-2014 19:05:00 20.8 C 7.42 g/m*3 20.8 C 9.7 km/h
131 25-06-2014 19:10:00 20.4 C 7.43 g/m*3 20.4 C 11.3 km/h
132 25-06-2014 19:15:00 20.1 C 7.65 g/m*3 20.1 C 9.7 km/h
133 25-06-2014 19:20:00 20 C 7.6 g/m*3 20 C 9.7 km/h
134 25-06-2014 19:25:00 19.7 C 7.64 g/m*3 19.7 C 9.7 km/h
135 25-06-2014 19:30:00 19.4 C 7.51 g/m*3 19.4 C 11.3 km/h
136 25-06-2014 19:35:00 19.1 C 7.54 g/m*3 19.1 C 9.7 km/h
137 25-06-2014 19:40:00 19.1 C 7.54 g/m*3 19.1 C 9.7 km/h
138 25-06-2014 19:45:00 19.2 C 7.59 g/m*3 19.2 C 9.7 km/h
139 25-06-2014 19:50:00 19.3 C 7.63 g/m*3 19.3 C 8.1 km/h
140 25-06-2014 19:55:00 19.3 C 7.63 g/m*3 19.3 C 9.7 km/h
141 25-06-2014 20:00:00 19.3 C 7.8 g/m*3 19.3 C 11.3 km/h
142 25-06-2014 20:05:00 19.2 C 7.91 g/m*3 19.2 C 9.7 km/h
143 25-06-2014 20:10:00 19 C 7.66 g/m*3 19 C 11.3 km/h
144 25-06-2014 20:15:00 18.8 C 7.89 g/m*3 18.8 C 9.7 km/h
145 25-06-2014 20:20:00 18.8 C 7.73 g/m*3 18.8 C 6.4 km/h
146 25-06-2014 20:25:00 18.9 C 7.94 g/m*3 18.9 C 9.7 km/h
147 25-06-2014 20:30:00 18.8 C 7.89 g/m*3 18.8 C 8.1 km/h
148 25-06-2014 20:35:00 18.7 C 8.01 g/m*3 18.7 C 8.1 km/h
149 25-06-2014 20:40:00 18.6 C 7.96 g/m*3 18.6 C 11.3 km/h
150 25-06-2014 20:45:00 18.4 C 7.86 g/m*3 18.4 C 8.1 km/h
Sensor: Nr:Datum:Temp:Abs-Feuchte:Windchill:Wind:
Aussen-T/F 151 25-06-2014 20:50:00 18.3 C 7.97 g/m*3 18.3 C 14.5 km/h
152 25-06-2014 20:55:00 18.1 C 7.88 g/m*3 18.1 C 8.1 km/h
153 25-06-2014 21:00:00 17.8 C 7.89 g/m*3 17.8 C 8.1 km/h
154 25-06-2014 21:05:00 17.7 C 8 g/m*3 17.7 C 8.1 km/h
155 25-06-2014 21:10:00 17.6 C 8.1 g/m*3 17.6 C 3.2 km/h
156 25-06-2014 21:15:00 17.5 C 8.05 g/m*3 17.5 C 3.2 km/h
157 25-06-2014 21:20:00 17.3 C 8.1 g/m*3 17.3 C 4.8 km/h
158 25-06-2014 21:25:00 17 C 8.39 g/m*3 17 C 0 km/h
159 25-06-2014 21:30:00 16.5 C 8.43 g/m*3 16.5 C 0 km/h
160 25-06-2014 21:35:00 15.9 C 8.26 g/m*3 15.9 C 0 km/h
161 25-06-2014 21:40:00 15.5 C 8.33 g/m*3 15.5 C 0 km/h
162 25-06-2014 21:45:00 15.2 C 8.31 g/m*3 15.2 C 0 km/h
163 25-06-2014 21:50:00 14.9 C 8.41 g/m*3 14.9 C 0 km/h
164 25-06-2014 21:55:00 14.7 C 8.44 g/m*3 14.7 C 0 km/h
165 25-06-2014 22:00:00 14.5 C 8.46 g/m*3 14.5 C 0 km/h
166 25-06-2014 22:05:00 14.3 C 8.48 g/m*3 14.3 C 0 km/h
167 25-06-2014 22:10:00 14.2 C 8.67 g/m*3 14.2 C 0 km/h
168 25-06-2014 22:15:00 14 C 8.56 g/m*3 14 C 0 km/h
169 25-06-2014 22:20:00 13.8 C 8.58 g/m*3 13.8 C 0 km/h
170 25-06-2014 22:25:00 13.7 C 8.53 g/m*3 13.7 C 0 km/h
171 25-06-2014 22:30:00 13.6 C 8.47 g/m*3 13.6 C 0 km/h
172 25-06-2014 22:35:00 13.5 C 8.54 g/m*3 13.5 C 0 km/h
173 25-06-2014 22:40:00 13.4 C 8.49 g/m*3 13.4 C 0 km/h
174 25-06-2014 22:45:00 13.3 C 8.43 g/m*3 13.3 C 0 km/h
175 25-06-2014 22:50:00 13.2 C 8.5 g/m*3 13.2 C 0 km/h
Sensor: Nr:Datum:Temp:Abs-Feuchte:Windchill:Wind:
Aussen-T/F 176 25-06-2014 22:55:00 13.2 C 8.5 g/m*3 13.2 C 0 km/h
177 25-06-2014 23:00:00 13.1 C 8.44 g/m*3 13.1 C 0 km/h
178 25-06-2014 23:05:00 13.1 C 8.44 g/m*3 13.1 C 0 km/h
179 25-06-2014 23:10:00 13 C 8.39 g/m*3 13 C 0 km/h
180 25-06-2014 23:15:00 12.9 C 8.45 g/m*3 12.9 C 0 km/h
181 25-06-2014 23:20:00 12.9 C 8.45 g/m*3 12.9 C 0 km/h
182 25-06-2014 23:25:00 12.7 C 8.35 g/m*3 12.7 C 0 km/h
183 25-06-2014 23:30:00 12.7 C 8.46 g/m*3 12.7 C 0 km/h
184 25-06-2014 23:35:00 12.5 C 8.47 g/m*3 12.5 C 0 km/h
185 25-06-2014 23:40:00 12.3 C 8.47 g/m*3 12.3 C 0 km/h
186 25-06-2014 23:45:00 12.1 C 8.47 g/m*3 12.1 C 0 km/h
187 25-06-2014 23:50:00 11.9 C 8.37 g/m*3 11.9 C 0 km/h
188 25-06-2014 23:55:00 11.8 C 8.31 g/m*3 11.8 C 0 km/h

Legende:
   Min
   Max


Maximal/Minimal-Werte vom 25.06.2014 - 25.06.2014

Sensor Min Max Avg
Temp
(Aussen-T/F)
11.8 °C
25-06-2014  23:55:00
21.1 °C
25-06-2014  18:30:00
17.29 °C
Abs-Feuchte
(Aussen-T/F)
7.09 g/m*3
25-06-2014  16:50:00
12.29 g/m*3
25-06-2014  08:30:00
8.1 g/m*3
Windchill
(Aussen-T/F)
11.8 C
25-06-2014  23:55:00
21.1 C
25-06-2014  18:30:00
17.2 C

Die Daten stammen von einer Davis Vantage Pro 2 Wetter-Station und werden unter Linux mit der Software wview2wettercgi und aufbereitet. Alle Angaben erfolgen ohne Gewähr für ihre Vollständigkeit oder Richtigkeit.
Kontakt: Rainer Krienke krienke@uni-koblenz.de . Meine Webseiten an der Uni Koblenz oder privat.
Version: $Revision: 0.78 $